Time;durP1;ratioP1;P1;durP2;ratioP2;P2;SDS_P1;SDS_P2;PMS_P1;PMS_P2;Temp;Humidity;BMP_temperature;BMP_pressure;BME280_temperature;BME280_humidity;BME280_pressure;Samples;Min_cycle;Max_cycle;Signal;HPM_P1;HPM_P2
2021/10/26 00:00:56;;;;;;;11.57;5.37;;;;;;;-145.69;100.00;72700.00;5135310;27;20205;-80
2021/10/26 00:03:22;;;;;;;13.40;6.00;;;;;;;-145.69;100.00;72707.97;5135753;27;20233;-80
2021/10/26 00:05:51;;;;;;;11.83;5.40;;;;;;;-145.69;100.00;72723.88;5135434;27;20209;-80
2021/10/26 00:08:18;;;;;;;13.70;5.50;;;;;;;-145.69;100.00;72721.88;5135271;27;20210;-80
2021/10/26 00:10:44;;;;;;;10.03;5.57;;;;;;;-145.69;100.00;72723.88;5135090;27;20208;-80
2021/10/26 00:13:12;;;;;;;19.93;6.50;;;;;;;-145.69;100.00;72713.94;5135295;27;20204;-80
2021/10/26 00:15:38;;;;;;;20.07;7.30;;;;;;;-145.69;100.00;72664.16;5134983;27;20224;-80
2021/10/26 00:18:05;;;;;;;18.00;6.80;;;;;;;-145.69;100.00;72664.16;5135107;27;20192;-80
2021/10/26 00:20:31;;;;;;;20.50;8.00;;;;;;;-145.69;100.00;72616.41;5135110;27;20261;-80
2021/10/26 00:22:59;;;;;;;25.93;8.67;;;;;;;-145.69;100.00;72608.44;5135037;27;20237;-80
2021/10/26 00:25:26;;;;;;;25.17;9.33;;;;;;;-145.69;100.00;72592.50;5134945;27;20593;-80
2021/10/26 00:27:53;;;;;;;20.07;7.77;;;;;;;-145.69;100.00;72608.44;5135064;27;20249;-80
2021/10/26 00:30:20;;;;;;;21.20;8.90;;;;;;;-145.69;100.00;72590.53;5134935;27;20253;-80
2021/10/26 00:32:46;;;;;;;23.97;8.70;;;;;;;-145.69;100.00;72564.66;5134965;27;20236;-80
2021/10/26 00:35:14;;;;;;;28.53;9.23;;;;;;;-145.69;100.00;72564.66;5134591;27;20229;-80
2021/10/26 00:37:40;;;;;;;13.23;7.20;;;;;;;-145.69;100.00;72606.44;5134484;27;20279;-80
2021/10/26 00:40:10;;;;;;;16.30;6.13;;;;;;;-145.69;100.00;72622.38;5134573;27;20193;-80
2021/10/26 00:42:37;;;;;;;19.93;7.87;;;;;;;-145.69;100.00;72580.56;5134756;27;20413;-80
2021/10/26 00:45:04;;;;;;;21.93;8.53;;;;;;;-145.69;100.00;72558.66;5134581;27;20201;-80
2021/10/26 00:47:30;;;;;;;19.63;7.90;;;;;;;-145.69;100.00;72552.69;5134638;27;20214;-80
2021/10/26 00:49:57;;;;;;;17.30;7.80;;;;;;;-145.69;100.00;72548.72;5134726;27;20559;-80
2021/10/26 00:52:24;;;;;;;24.40;7.87;;;;;;;-145.69;100.00;72548.72;5140864;27;20280;-80
2021/10/26 00:54:51;;;;;;;18.27;7.80;;;;;;;-145.69;100.00;72560.66;5154968;27;20741;-80
2021/10/26 00:57:24;;;;;;;21.80;7.13;;;;;;;-145.69;100.00;72562.66;5155093;27;20192;-80
2021/10/26 00:59:50;;;;;;;12.20;6.53;;;;;;;-145.69;100.00;72584.56;5155076;27;20659;-80
2021/10/26 01:02:17;;;;;;;14.10;5.87;;;;;;;-145.69;100.00;72616.41;5154998;27;20202;-80
2021/10/26 01:04:43;;;;;;;13.00;5.53;;;;;;;-145.69;100.00;72626.34;5154813;27;20196;-79
2021/10/26 01:07:10;;;;;;;16.87;6.20;;;;;;;-145.69;100.00;72636.31;5155005;27;20208;-80
2021/10/26 01:09:39;;;;;;;12.43;6.07;;;;;;;-145.69;100.00;72628.34;5155022;27;20280;-80
2021/10/26 01:12:05;;;;;;;12.03;5.87;;;;;;;-145.69;100.00;72636.31;5154816;27;20287;-80
2021/10/26 01:14:33;;;;;;;16.60;6.33;;;;;;;-145.69;100.00;72604.44;5154361;27;20260;-80
2021/10/26 01:17:05;;;;;;;25.60;7.83;;;;;;;-145.69;100.00;72598.47;5154540;27;20231;-80
2021/10/26 01:19:42;;;;;;;15.43;6.60;;;;;;;-145.69;100.00;72608.44;5155150;27;20203;-80
2021/10/26 01:22:09;;;;;;;21.50;7.90;;;;;;;-145.69;100.00;72594.50;5154858;27;20207;-80
2021/10/26 01:24:35;;;;;;;18.17;8.00;;;;;;;-145.69;100.00;72566.63;5154657;27;20646;-80
2021/10/26 01:27:03;;;;;;;21.00;8.43;;;;;;;-145.69;100.00;72548.72;5154616;27;20555;-80
2021/10/26 01:29:30;;;;;;;24.13;8.37;;;;;;;-145.69;100.00;72524.84;5154737;27;20202;-80
2021/10/26 01:31:57;;;;;;;20.73;7.93;;;;;;;-145.69;100.00;72516.88;5154588;27;20215;-80
2021/10/26 01:34:23;;;;;;;22.13;8.00;;;;;;;-145.69;100.00;72514.88;5154827;27;20196;-80
2021/10/26 01:36:51;;;;;;;19.60;7.63;;;;;;;-145.69;100.00;72512.91;5154577;27;20230;-80
2021/10/26 01:39:21;;;;;;;18.43;8.50;;;;;;;-145.69;100.00;72500.94;5154716;27;20195;-80
2021/10/26 01:41:48;;;;;;;17.70;7.80;;;;;;;-145.69;100.00;72500.94;5154483;27;20706;-79
2021/10/26 01:44:14;;;;;;;20.20;7.67;;;;;;;-145.69;100.00;72496.97;5154663;27;20202;-80
2021/10/26 01:46:43;;;;;;;14.30;7.37;;;;;;;-145.69;100.00;72493.00;5154772;27;20203;-80
2021/10/26 01:49:09;;;;;;;16.67;6.67;;;;;;;-145.69;100.00;72481.03;5154694;27;20234;-80
2021/10/26 01:51:36;;;;;;;15.93;6.57;;;;;;;-145.69;100.00;72504.94;5154419;27;20228;-80
2021/10/26 01:54:05;;;;;;;11.37;5.60;;;;;;;-145.69;100.00;72522.84;5154570;27;20193;-80
2021/10/26 01:56:32;;;;;;;14.07;5.60;;;;;;;-145.69;100.00;72518.88;5154408;27;20251;-80
2021/10/26 01:59:01;;;;;;;13.70;6.50;;;;;;;-145.69;100.00;72504.94;5154254;27;20200;-80
2021/10/26 02:01:30;;;;;;;17.55;8.63;;;;;;;-145.69;100.00;72481.03;5153929;27;20857;-80
2021/10/26 02:04:00;;;;;;;16.80;7.17;;;;;;;-145.69;100.00;72457.16;5154344;27;20599;-80
2021/10/26 02:06:27;;;;;;;15.53;6.80;;;;;;;-145.69;100.00;72453.19;5154412;27;20192;-80
2021/10/26 02:08:53;;;;;;;17.80;7.03;;;;;;;-145.69;100.00;72449.19;5154341;27;20647;-80
2021/10/26 02:11:23;;;;;;;11.27;5.77;;;;;;;-145.69;100.00;72463.13;5154189;27;20199;-80
2021/10/26 02:13:49;;;;;;;12.73;6.37;;;;;;;-145.69;100.00;72469.09;5154427;27;20196;-80
2021/10/26 02:16:16;;;;;;;10.17;5.90;;;;;;;-145.69;100.00;72469.09;5154369;27;20619;-80
2021/10/26 02:18:42;;;;;;;13.00;6.50;;;;;;;-145.69;100.00;72469.09;5154190;27;20236;-80
2021/10/26 02:21:09;;;;;;;11.13;5.83;;;;;;;-145.69;100.00;72465.13;5154133;27;20712;-80
2021/10/26 02:23:38;;;;;;;10.60;5.80;;;;;;;-145.69;100.00;72479.06;5154362;27;20196;-80
2021/10/26 02:26:05;;;;;;;13.53;6.20;;;;;;;-145.69;100.00;72459.16;5157755;27;20223;-80
2021/10/26 02:28:33;;;;;;;19.20;6.20;;;;;;;-145.69;100.00;72451.19;5158136;27;20200;-79
2021/10/26 02:30:59;;;;;;;13.77;6.00;;;;;;;-145.69;100.00;72453.19;5157853;27;20196;-80
2021/10/26 02:33:26;;;;;;;11.33;5.57;;;;;;;-145.69;100.00;72461.13;5157884;27;20662;-80
2021/10/26 02:35:52;;;;;;;14.77;6.47;;;;;;;-145.69;100.00;72453.19;5157718;27;20220;-80
2021/10/26 02:38:21;;;;;;;16.50;6.33;;;;;;;-145.69;100.00;72437.25;5157645;27;20208;-80
2021/10/26 02:40:47;;;;;;;11.87;6.47;;;;;;;-145.69;100.00;72435.28;5157627;27;20200;-80
2021/10/26 02:43:14;;;;;;;10.63;5.77;;;;;;;-145.69;100.00;72447.22;5157792;27;20196;-80
2021/10/26 02:45:42;;;;;;;10.73;5.50;;;;;;;-145.69;100.00;72457.16;5157679;27;20282;-80
2021/10/26 02:48:08;;;;;;;8.67;4.83;;;;;;;-145.69;100.00;72461.13;5157673;27;20196;-80
2021/10/26 02:50:34;;;;;;;11.60;5.40;;;;;;;-145.69;100.00;72469.09;5157552;27;20196;-79
2021/10/26 02:53:01;;;;;;;13.70;6.10;;;;;;;-145.69;100.00;72469.09;5157254;27;20296;-79
2021/10/26 02:55:27;;;;;;;11.90;5.80;;;;;;;-145.69;100.00;72467.13;5157297;27;20704;-80
2021/10/26 02:57:54;;;;;;;12.00;5.80;;;;;;;-145.69;100.00;72467.13;5157342;27;20200;-80
2021/10/26 03:00:20;;;;;;;14.23;6.00;;;;;;;-145.69;100.00;72455.16;5153995;27;20196;-80
2021/10/26 03:02:48;;;;;;;14.33;6.27;;;;;;;-145.69;100.00;72437.25;5157256;27;20200;-80
2021/10/26 03:05:15;;;;;;;12.80;5.77;;;;;;;-145.69;100.00;72429.28;5157126;27;20586;-80
2021/10/26 03:07:42;;;;;;;12.93;6.60;;;;;;;-145.69;100.00;72421.34;5156954;27;20256;-80
2021/10/26 03:10:09;;;;;;;16.43;6.50;;;;;;;-145.69;100.00;72411.38;5157319;27;20200;-80
2021/10/26 03:12:36;;;;;;;20.13;6.90;;;;;;;-145.69;100.00;72401.44;5157192;27;20192;-80
2021/10/26 03:15:03;;;;;;;13.27;6.47;;;;;;;-145.69;100.00;72407.41;5157010;27;20196;-80
2021/10/26 03:17:30;;;;;;;16.27;6.17;;;;;;;-145.69;100.00;72407.41;5156770;27;20247;-80
2021/10/26 03:19:58;;;;;;;14.67;7.20;;;;;;;-145.69;100.00;72407.41;5156808;27;20200;-80
2021/10/26 03:22:24;;;;;;;12.20;5.97;;;;;;;-145.69;100.00;72407.41;5156673;27;20685;-80
2021/10/26 03:24:51;;;;;;;10.97;6.47;;;;;;;-145.69;100.00;72409.38;5156851;27;20200;-80
2021/10/26 03:27:17;;;;;;;11.70;6.60;;;;;;;-145.69;100.00;72403.41;5156788;27;20219;-81
2021/10/26 03:29:44;;;;;;;15.20;6.83;;;;;;;-145.69;100.00;72399.44;5156832;27;20208;-80
2021/10/26 03:32:10;;;;;;;16.80;6.77;;;;;;;-145.69;100.00;72393.47;5156666;27;20211;-80
2021/10/26 03:34:37;;;;;;;15.97;7.30;;;;;;;-145.69;100.00;72395.47;5156651;27;20199;-80
2021/10/26 03:37:06;;;;;;;13.70;5.80;;;;;;;-145.69;100.00;72409.38;5155374;27;20227;-80
2021/10/26 03:39:33;;;;;;;15.03;6.00;;;;;;;-145.69;100.00;72407.41;5156609;27;20622;-80
2021/10/26 03:42:00;;;;;;;11.60;5.47;;;;;;;-145.69;100.00;72409.38;5156553;27;20198;-80
2021/10/26 03:44:27;;;;;;;11.67;5.97;;;;;;;-145.69;100.00;72407.41;5156376;27;20200;-80
2021/10/26 03:46:53;;;;;;;14.40;6.67;;;;;;;-145.69;100.00;72409.38;5156291;27;20196;-80
2021/10/26 03:49:20;;;;;;;12.17;6.57;;;;;;;-145.69;100.00;72403.41;5156075;27;20204;-80
2021/10/26 03:51:47;;;;;;;15.70;7.27;;;;;;;-145.69;100.00;72401.44;5156193;27;20236;-80
2021/10/26 03:54:15;;;;;;;16.73;6.57;;;;;;;-145.69;100.00;72409.38;5156335;27;20207;-81
2021/10/26 03:56:41;;;;;;;14.60;6.73;;;;;;;-145.69;100.00;72415.38;5156284;27;20238;-81
2021/10/26 03:59:09;;;;;;;15.03;6.77;;;;;;;-145.69;100.00;72409.38;5156688;27;20191;-82
2021/10/26 04:01:37;;;;;;;14.17;5.93;;;;;;;-145.69;100.00;72411.38;5156604;27;20207;-81
2021/10/26 04:04:04;;;;;;;12.73;6.83;;;;;;;-145.69;100.00;72407.41;5156617;27;20193;-81
2021/10/26 04:06:32;;;;;;;15.33;6.87;;;;;;;-145.69;100.00;72413.38;5156161;27;20670;-80
2021/10/26 04:09:01;;;;;;;18.87;7.43;;;;;;;-145.69;100.00;72403.41;5156218;27;20208;-80
2021/10/26 04:11:30;;;;;;;18.47;7.57;;;;;;;-145.69;100.00;72391.47;5156021;27;20744;-80
2021/10/26 04:13:57;;;;;;;15.63;7.67;;;;;;;-145.69;100.00;72387.50;5155887;27;20206;-80
2021/10/26 04:16:26;;;;;;;17.20;7.50;;;;;;;-145.69;100.00;72383.53;5156027;27;20556;-80
2021/10/26 04:18:54;;;;;;;15.80;7.30;;;;;;;-145.69;100.00;72381.53;5156146;27;20599;-79
2021/10/26 04:21:20;;;;;;;12.90;6.97;;;;;;;-145.69;100.00;72385.50;5155856;27;20650;-80
2021/10/26 04:23:47;;;;;;;17.33;8.37;;;;;;;-145.69;100.00;72377.53;5155963;27;20196;-80
2021/10/26 04:26:15;;;;;;;16.93;7.47;;;;;;;-145.69;100.00;72371.56;5155840;27;20646;-79
2021/10/26 04:28:43;;;;;;;18.10;8.47;;;;;;;-145.69;100.00;72371.56;5155637;27;20203;-79
2021/10/26 04:31:10;;;;;;;18.30;9.03;;;;;;;-145.69;100.00;72367.59;5155467;27;20439;-79
2021/10/26 04:33:36;;;;;;;20.13;8.93;;;;;;;-145.69;100.00;72349.69;5155753;27;20192;-80
2021/10/26 04:36:03;;;;;;;21.90;9.97;;;;;;;-145.69;100.00;72345.69;5155434;27;20585;-80
2021/10/26 04:38:29;;;;;;;19.90;9.73;;;;;;;-145.69;100.00;72351.66;5155745;27;20192;-80
2021/10/26 04:40:58;;;;;;;23.70;10.30;;;;;;;-145.69;100.00;72337.75;5155483;27;20203;-79
2021/10/26 04:43:25;;;;;;;24.23;10.03;;;;;;;-145.69;100.00;72325.81;5155348;27;20195;-80
2021/10/26 04:45:53;;;;;;;26.73;11.73;;;;;;;-145.69;100.00;72315.84;5155169;27;20435;-79
2021/10/26 04:48:22;;;;;;;25.87;10.10;;;;;;;-145.69;100.00;72315.84;5154502;27;20202;-80
2021/10/26 04:50:48;;;;;;;19.47;6.97;;;;;;;-145.69;100.00;72327.78;5151940;27;20227;-80
2021/10/26 04:53:15;;;;;;;17.30;7.63;;;;;;;-145.69;100.00;72333.75;5155181;27;20257;-80
2021/10/26 04:55:41;;;;;;;22.20;9.13;;;;;;;-145.69;100.00;72329.78;5155153;27;20200;-80
2021/10/26 04:58:08;;;;;;;17.00;8.50;;;;;;;-145.69;100.00;72329.78;5154938;27;20231;-80
2021/10/26 05:00:34;;;;;;;19.30;8.50;;;;;;;-145.69;100.00;72321.81;5155301;27;20248;-80
2021/10/26 05:03:02;;;;;;;15.97;7.23;;;;;;;-145.69;100.00;72317.84;5154829;27;20203;-79
2021/10/26 05:05:29;;;;;;;21.00;9.07;;;;;;;-145.69;100.00;72325.81;5155255;27;20200;-79
2021/10/26 05:07:55;;;;;;;18.70;9.00;;;;;;;-145.69;100.00;72331.78;5154985;27;20275;-79
2021/10/26 05:10:22;;;;;;;18.47;7.93;;;;;;;-145.69;100.00;72323.81;5154868;27;20196;-80
2021/10/26 05:12:48;;;;;;;19.43;8.57;;;;;;;-145.69;100.00;72317.84;5154914;27;20203;-79
2021/10/26 05:15:15;;;;;;;20.53;9.00;;;;;;;-145.69;100.00;72315.84;5155005;27;20192;-79
2021/10/26 05:17:42;;;;;;;20.40;8.93;;;;;;;-145.69;100.00;72323.81;5154674;27;20702;-79
2021/10/26 05:20:12;;;;;;;12.20;6.67;;;;;;;-145.69;100.00;72327.78;5154976;27;20196;-79
2021/10/26 05:22:39;;;;;;;15.83;6.70;;;;;;;-145.69;100.00;72327.78;5154902;27;20196;-79
2021/10/26 05:25:05;;;;;;;18.30;8.07;;;;;;;-145.69;100.00;72329.78;5154631;27;20192;-78
2021/10/26 05:27:36;;;;;;;17.10;7.67;;;;;;;-145.69;100.00;72327.78;5155074;27;20200;-79
2021/10/26 05:30:03;;;;;;;12.90;6.97;;;;;;;-145.69;100.00;72329.78;5155022;27;20295;-79
2021/10/26 05:32:29;;;;;;;13.07;6.93;;;;;;;-145.69;100.00;72329.78;5154945;27;20192;-78
2021/10/26 05:34:56;;;;;;;19.23;8.70;;;;;;;-145.69;100.00;72333.75;5154921;27;20230;-79
2021/10/26 05:37:24;;;;;;;19.50;8.63;;;;;;;-145.69;100.00;72329.78;5154468;27;20627;-79
2021/10/26 05:39:50;;;;;;;19.40;9.53;;;;;;;-145.69;100.00;72315.84;5154602;27;20569;-79
2021/10/26 05:42:17;;;;;;;17.33;7.80;;;;;;;-145.69;100.00;72315.84;5154722;27;20229;-79
2021/10/26 05:44:43;;;;;;;15.00;8.03;;;;;;;-145.69;100.00;72313.84;5154633;27;20264;-78
2021/10/26 05:47:10;;;;;;;15.90;7.90;;;;;;;-145.69;100.00;72315.84;5154836;27;20202;-79
2021/10/26 05:49:37;;;;;;;15.73;8.13;;;;;;;-145.69;100.00;72327.78;5154565;27;20688;-79
2021/10/26 05:52:03;;;;;;;15.13;7.70;;;;;;;-145.69;100.00;72329.78;5154263;27;20235;-79
2021/10/26 05:54:31;;;;;;;18.40;7.97;;;;;;;-145.69;100.00;72329.78;5154563;27;20199;-79
2021/10/26 05:56:58;;;;;;;17.90;8.07;;;;;;;-145.69;100.00;72333.75;5154555;27;20231;-79
2021/10/26 05:59:24;;;;;;;16.20;6.93;;;;;;;-145.69;100.00;72335.75;5155711;27;20207;-80
2021/10/26 06:01:51;;;;;;;17.70;8.13;;;;;;;-145.69;100.00;72341.72;5158703;27;20204;-79
2021/10/26 06:04:18;;;;;;;17.47;8.33;;;;;;;-145.69;100.00;72339.72;5158462;27;20283;-78
2021/10/26 06:06:46;;;;;;;18.43;7.90;;;;;;;-145.69;100.00;72343.72;5158377;27;20237;-79
2021/10/26 06:09:15;;;;;;;19.63;8.23;;;;;;;-145.69;100.00;72347.69;5158571;27;20192;-79
2021/10/26 06:11:45;;;;;;;20.53;8.93;;;;;;;-145.69;100.00;72345.69;5158502;27;20204;-79
2021/10/26 06:14:11;;;;;;;17.87;7.70;;;;;;;-145.69;100.00;72357.66;5158324;27;20674;-79
2021/10/26 06:16:39;;;;;;;18.20;8.50;;;;;;;-145.69;100.00;72353.66;5158485;27;20223;-79
2021/10/26 06:19:06;;;;;;;21.77;9.07;;;;;;;-145.69;100.00;72351.66;5158243;27;20200;-79
2021/10/26 06:21:33;;;;;;;18.93;9.83;;;;;;;-145.69;100.00;72349.69;5157958;27;20674;-79
2021/10/26 06:24:00;;;;;;;93.43;33.03;;;;;;;-145.69;100.00;72345.69;5158258;27;20233;-80
2021/10/26 06:26:27;;;;;;;98.83;33.60;;;;;;;-145.69;100.00;72341.72;5158025;27;20680;-79
2021/10/26 06:28:55;;;;;;;70.60;26.57;;;;;;;-145.69;100.00;72341.72;5158051;27;20203;-80
2021/10/26 06:31:22;;;;;;;24.47;12.07;;;;;;;-145.69;100.00;72339.72;5158030;27;20282;-79
2021/10/26 06:33:48;;;;;;;23.93;11.57;;;;;;;-145.69;100.00;72337.75;5157845;27;20200;-79
2021/10/26 06:36:15;;;;;;;29.63;12.90;;;;;;;-145.69;100.00;72339.72;5157703;27;20200;-80
2021/10/26 06:38:41;;;;;;;30.20;12.37;;;;;;;-145.69;100.00;72333.75;5157856;27;20224;-79
2021/10/26 06:41:08;;;;;;;19.17;10.63;;;;;;;-145.69;100.00;72331.78;5158008;27;20596;-79
2021/10/26 06:43:37;;;;;;;23.60;12.10;;;;;;;-145.69;100.00;72331.78;5157705;27;20196;-79
2021/10/26 06:46:05;;;;;;;15.77;8.07;;;;;;;-145.69;100.00;72329.78;5157755;27;20199;-80
2021/10/26 06:48:32;;;;;;;19.37;6.63;;;;;;;-145.69;100.00;72341.72;5157610;27;20200;-80
2021/10/26 06:50:58;;;;;;;16.87;6.63;;;;;;;-145.69;100.00;72343.72;5157860;27;20207;-79
2021/10/26 06:53:25;;;;;;;12.60;6.13;;;;;;;-145.69;100.00;72351.66;5157439;27;20234;-80
2021/10/26 06:55:53;;;;;;;16.27;7.73;;;;;;;-145.69;100.00;72363.63;5157766;27;20200;-80
2021/10/26 06:58:20;;;;;;;18.07;8.40;;;;;;;-145.69;100.00;72363.63;5155798;27;20784;-80
2021/10/26 07:00:46;;;;;;;15.13;8.20;;;;;;;-145.69;100.00;72365.59;5155827;27;20685;-80
2021/10/26 07:03:14;;;;;;;17.37;7.60;;;;;;;-145.69;100.00;72365.59;5157277;27;20200;-80
2021/10/26 07:05:41;;;;;;;15.27;8.17;;;;;;;-145.69;100.00;72365.59;5157459;27;20203;-80
2021/10/26 07:08:07;;;;;;;13.20;7.40;;;;;;;-145.69;100.00;72365.59;5157361;27;20206;-80
2021/10/26 07:10:34;;;;;;;15.33;8.00;;;;;;;-145.69;100.00;72357.66;5156299;27;20200;-80
2021/10/26 07:13:02;;;;;;;17.60;8.83;;;;;;;-145.69;100.00;72345.69;5157177;27;20192;-80
2021/10/26 07:15:31;;;;;;;18.70;7.70;;;;;;;-145.69;100.00;72339.72;5157074;27;20215;-80
2021/10/26 07:17:58;;;;;;;20.23;9.03;;;;;;;-145.69;100.00;72323.81;5157172;27;20599;-80
2021/10/26 07:20:26;;;;;;;14.03;7.30;;;;;;;-145.69;100.00;72313.84;5157252;27;20539;-80
2021/10/26 07:22:54;;;;;;;18.37;7.50;;;;;;;-145.69;100.00;72293.94;5157084;27;20245;-79
2021/10/26 07:25:22;;;;;;;14.13;7.83;;;;;;;-145.69;100.00;72286.00;5157024;27;20291;-77
2021/10/26 07:27:56;;;;;;;17.07;7.73;;;;;;;-145.69;100.00;72274.06;5157024;27;20306;-79
2021/10/26 07:30:23;;;;;;;16.03;7.60;;;;;;;-145.69;100.00;72278.03;5156805;27;20214;-77
2021/10/26 07:32:50;;;;;;;12.47;7.07;;;;;;;-145.69;100.00;72270.06;5156912;27;20285;-79
2021/10/26 07:35:17;;;;;;;10.50;6.73;;;;;;;-145.69;100.00;72264.09;5156695;27;20196;-79
2021/10/26 07:37:46;;;;;;;15.97;7.10;;;;;;;-145.69;100.00;72250.16;5156696;27;20334;-79
2021/10/26 07:40:14;;;;;;;14.87;7.00;;;;;;;-145.69;100.00;72244.19;5156818;27;20200;-79
2021/10/26 07:42:41;;;;;;;13.47;6.53;;;;;;;-145.69;100.00;72238.22;5156923;27;20192;-79
2021/10/26 07:45:09;;;;;;;13.03;6.77;;;;;;;-145.69;100.00;72246.19;5156715;27;20204;-79
2021/10/26 07:47:37;;;;;;;14.80;6.80;;;;;;;-145.69;100.00;72234.25;5156451;27;20200;-79
2021/10/26 07:50:05;;;;;;;14.77;6.47;;;;;;;-145.69;100.00;72222.31;5156356;27;20192;-79
2021/10/26 07:52:31;;;;;;;13.60;6.40;;;;;;;-145.69;100.00;72204.38;5156031;27;20234;-79
2021/10/26 07:54:59;;;;;;;13.17;6.70;;;;;;;-145.69;100.00;72186.47;5156215;27;20248;-79
2021/10/26 07:57:27;;;;;;;11.10;6.17;;;;;;;-145.69;100.00;72180.50;5156000;27;20231;-79
2021/10/26 07:59:55;;;;;;;12.40;6.10;;;;;;;-145.69;100.00;72160.59;5156330;27;20282;-79
2021/10/26 08:02:21;;;;;;;11.63;5.80;;;;;;;-145.69;100.00;72144.69;5156215;27;20200;-79
2021/10/26 08:04:49;;;;;;;12.97;5.20;;;;;;;-145.69;100.00;72094.94;5156108;27;20204;-79
2021/10/26 08:07:17;;;;;;;7.68;4.78;;;;;;;-145.69;100.00;72067.06;5156037;27;20531;-79
2021/10/26 08:09:43;;;;;;;9.35;4.57;;;;;;;-145.69;100.00;72045.16;5155798;27;20231;-79
2021/10/26 08:12:11;;;;;;;10.38;4.88;;;;;;;-145.69;100.00;72035.22;5155935;27;20288;-79
2021/10/26 08:14:38;;;;;;;7.15;4.50;;;;;;;-145.69;100.00;72007.34;5156002;27;20204;-79
2021/10/26 08:17:05;;;;;;;8.45;3.90;;;;;;;-145.69;99.73;71975.50;5155557;27;20195;-80
2021/10/26 08:19:31;;;;;;;8.40;3.90;;;;;;;-145.69;100.00;71977.50;5155809;27;20196;-77
2021/10/26 08:21:59;;;;;;;7.28;3.95;;;;;;;-145.69;100.00;71965.56;5151768;27;20200;-77
2021/10/26 08:24:29;;;;;;;13.57;4.47;;;;;;;-145.69;99.31;71957.59;5155550;27;20200;-78
2021/10/26 08:27:00;;;;;;;9.63;4.20;;;;;;;-145.69;97.36;71977.50;5155174;27;20197;-79
2021/10/26 08:29:40;;;;;;;8.95;4.15;;;;;;;-145.69;98.38;71955.63;5155673;27;20204;-79
2021/10/26 08:34:53;;;;;;;9.20;4.60;;;;;;;-145.69;95.95;71947.66;5155491;27;20206;-79
2021/10/26 08:37:19;;;;;;;11.70;4.45;;;;;;;-145.69;100.00;72003.38;5155219;27;20227;-79
2021/10/26 08:39:46;;;;;;;10.50;4.22;;;;;;;-145.69;100.00;72051.16;5155315;27;20207;-78
2021/10/26 08:42:17;;;;;;;9.43;4.35;;;;;;;-145.69;100.00;72045.16;5154928;27;20562;-79
2021/10/26 08:44:45;;;;;;;12.32;4.78;;;;;;;-145.69;100.00;72061.09;5155218;27;20204;-78
2021/10/26 08:47:14;;;;;;;11.32;4.72;;;;;;;-145.69;100.00;72041.19;5154829;27;20620;-78
2021/10/26 08:49:43;;;;;;;5.65;3.38;;;;;;;-145.69;98.88;72029.25;5155261;27;20196;-79
2021/10/26 08:52:10;;;;;;;11.38;3.97;;;;;;;-145.69;98.31;72001.38;5154944;27;20232;-77
2021/10/26 08:54:36;;;;;;;6.07;2.70;;;;;;;-145.69;94.15;72033.22;5155119;27;20196;-79
2021/10/26 08:57:03;;;;;;;8.70;2.88;;;;;;;-145.69;96.26;72001.38;5154962;27;20200;-79
2021/10/26 08:59:30;;;;;;;6.30;3.10;;;;;;;-145.69;97.31;71999.41;5152753;27;20202;-79
2021/10/26 09:01:59;;;;;;;5.90;3.10;;;;;;;-145.69;97.64;71985.47;5152615;27;20224;-78
2021/10/26 09:04:30;;;;;;;4.83;2.60;;;;;;;-145.69;92.27;72003.38;5154884;27;20566;-80
2021/10/26 09:07:03;;;;;;;6.25;3.20;;;;;;;-145.69;95.19;71993.44;5154752;27;20642;-80
2021/10/26 09:09:32;;;;;;;6.43;3.13;;;;;;;-145.69;94.68;72001.38;5154979;27;20196;-78
2021/10/26 09:17:33;;;;;;;8.50;3.10;;;;;;;-145.69;89.96;71903.88;5133268;27;20227;-80
2021/10/26 09:20:01;;;;;;;8.73;2.97;;;;;;;-145.69;90.49;71876.00;5133700;27;20193;-80
2021/10/26 09:22:30;;;;;;;8.35;2.70;;;;;;;-145.69;85.82;71806.34;5133955;27;20200;-80
2021/10/26 09:24:58;;;;;;;8.07;2.90;;;;;;;-145.69;85.87;71770.53;5133823;27;20220;-80
2021/10/26 09:27:25;;;;;;;9.32;2.70;;;;;;;-145.69;81.82;71756.59;5133791;28;20654;-80
2021/10/26 09:29:54;;;;;;;96.13;31.23;;;;;;;-145.69;83.69;71746.66;5134018;28;20200;-79
2021/10/26 09:32:23;;;;;;;6.03;2.90;;;;;;;-145.69;82.00;71794.41;5134037;28;20196;-79
2021/10/26 09:34:54;;;;;;;8.10;2.75;;;;;;;-145.69;86.80;71824.25;5136085;27;20235;-79
2021/10/26 09:37:22;;;;;;;7.28;2.88;;;;;;;-145.69;84.55;71842.19;5138031;27;20200;-79
2021/10/26 09:39:55;;;;;;;9.95;2.78;;;;;;;-145.69;85.54;71860.09;5138323;27;20200;-79
2021/10/26 09:42:21;;;;;;;4.25;1.90;;;;;;;-145.69;85.15;71911.84;5138266;27;20294;-79
2021/10/26 09:44:50;;;;;;;9.30;2.28;;;;;;;-145.69;85.58;71901.88;5138157;27;20205;-79
2021/10/26 09:47:21;;;;;;;12.00;2.20;;;;;;;-145.69;85.01;71955.63;5138100;27;20223;-80
2021/10/26 09:49:55;;;;;;;4.10;1.90;;;;;;;-145.69;87.59;71979.50;5137777;27;20223;-79
2021/10/26 09:52:26;;;;;;;7.30;2.05;;;;;;;-145.69;86.41;71949.66;5137577;27;20585;-79
2021/10/26 09:55:11;;;;;;;4.93;2.00;;;;;;;-145.69;86.02;71927.75;5138019;27;20192;-80
2021/10/26 09:57:39;;;;;;;8.45;2.90;;;;;;;-145.69;87.56;71931.72;5137582;27;20200;-80
2021/10/26 10:00:08;;;;;;;5.47;1.95;;;;;;;-145.69;84.78;71955.63;5137634;27;20196;-80
2021/10/26 10:02:35;;;;;;;6.22;1.52;;;;;;;-145.69;86.61;71947.66;5138226;27;20200;-79
2021/10/26 10:05:05;;;;;;;10.57;2.30;;;;;;;-145.69;85.10;71935.72;5137587;27;20192;-79
2021/10/26 10:07:33;;;;;;;7.18;2.08;;;;;;;-145.69;83.74;71939.69;5137672;27;20197;-79
2021/10/26 10:10:00;;;;;;;5.50;2.60;;;;;;;-145.69;89.11;71897.91;5137311;27;20654;-79
2021/10/26 10:12:28;;;;;;;5.53;2.17;;;;;;;-145.69;85.53;71905.88;5137291;27;20201;-79
2021/10/26 10:14:55;;;;;;;5.88;1.90;;;;;;;-145.69;85.58;71864.06;5137428;27;20295;-80
2021/10/26 10:17:23;;;;;;;6.63;2.10;;;;;;;-145.69;82.34;71830.25;5137323;27;20707;-79
2021/10/26 10:19:51;;;;;;;8.23;2.25;;;;;;;-145.69;81.91;71874.03;5137239;27;20766;-79
2021/10/26 10:22:23;;;;;;;9.98;2.20;;;;;;;-145.69;83.84;71889.94;5137218;27;20208;-79
2021/10/26 10:24:54;;;;;;;6.68;2.53;;;;;;;-145.69;84.90;71850.13;5137326;27;20231;-77
2021/10/26 10:27:22;;;;;;;7.25;2.45;;;;;;;-145.69;82.45;71828.25;5137313;27;20211;-80
2021/10/26 10:29:49;;;;;;;5.35;2.05;;;;;;;-145.69;80.53;71824.25;5137274;27;20196;-80
2021/10/26 10:32:16;;;;;;;10.15;1.88;;;;;;;-145.69;82.34;71826.25;5137072;27;20205;-80
2021/10/26 10:34:44;;;;;;;6.63;1.88;;;;;;;-145.69;80.68;71856.09;5137088;27;20274;-80
2021/10/26 10:37:11;;;;;;;5.70;1.55;;;;;;;-145.69;78.87;71836.22;5137069;27;20563;-80
2021/10/26 10:39:39;;;;;;;3.35;1.42;;;;;;;-145.69;81.02;71844.16;5136745;27;20224;-81
2021/10/26 10:42:12;;;;;;;5.60;2.00;;;;;;;-145.69;80.96;71852.13;5136802;27;20651;-80
2021/10/26 10:44:40;;;;;;;3.60;1.70;;;;;;;-145.69;80.98;71899.88;5136652;27;20222;-79
2021/10/26 10:47:11;;;;;;;3.65;1.77;;;;;;;-145.69;82.50;71915.81;5136741;27;20201;-79
2021/10/26 10:49:48;;;;;;;4.05;1.70;;;;;;;-145.69;80.83;71870.03;5136819;27;20223;-80
2021/10/26 10:52:19;;;;;;;7.75;1.40;;;;;;;-145.69;77.13;71848.16;5136447;27;20256;-81
2021/10/26 10:54:50;;;;;;;2.95;1.10;;;;;;;-145.69;77.71;71824.25;5136841;27;20200;-80
2021/10/26 10:57:20;;;;;;;4.93;1.30;;;;;;;-145.69;78.27;71816.31;5136405;27;20197;-80
2021/10/26 10:59:48;;;;;;;8.85;1.45;;;;;;;-145.69;76.36;71808.34;5138776;27;20273;-79
2021/10/26 11:02:22;;;;;;;5.63;1.40;;;;;;;-145.69;76.32;71788.44;5136539;27;20192;-79
2021/10/26 11:04:50;;;;;;;7.07;1.40;;;;;;;-145.69;76.12;71838.19;5136499;27;20215;-79
2021/10/26 11:07:16;;;;;;;3.83;1.38;;;;;;;-145.69;76.19;71824.25;5136815;27;20205;-79
2021/10/26 11:09:45;;;;;;;4.78;1.27;;;;;;;-145.69;74.83;71808.34;5136463;27;20223;-79
2021/10/26 11:12:16;;;;;;;4.38;1.40;;;;;;;-145.69;75.13;71772.53;5136168;27;20197;-79
2021/10/26 11:14:45;;;;;;;6.32;1.30;;;;;;;-145.69;71.87;71776.50;5136258;27;20712;-79